createdAt,value
2022-12-13T00:01:18.299Z,48.83
2022-12-13T00:03:46.205Z,49.02
2022-12-13T00:06:14.381Z,48.90
2022-12-13T00:08:42.779Z,48.98
2022-12-13T00:11:12.772Z,48.91
2022-12-13T00:13:41.775Z,48.81
2022-12-13T00:16:12.392Z,49.07
2022-12-13T00:18:40.306Z,48.82
2022-12-13T00:21:11.039Z,48.87
2022-12-13T00:23:38.771Z,49.02
2022-12-13T00:26:06.690Z,48.96
2022-12-13T00:28:34.716Z,49.17
2022-12-13T00:31:26.963Z,49.08
2022-12-13T00:33:52.939Z,48.97
2022-12-13T00:36:21.113Z,48.88
2022-12-13T00:39:00.358Z,48.81
2022-12-13T00:41:29.939Z,48.81
2022-12-13T00:43:58.664Z,48.96
2022-12-13T00:46:26.548Z,48.89
2022-12-13T00:48:56.649Z,48.61
2022-12-13T00:51:24.976Z,48.80
2022-12-13T00:53:52.662Z,48.80
2022-12-13T00:56:21.925Z,48.70
2022-12-13T00:58:52.256Z,48.65
2022-12-13T01:01:21.340Z,48.72
2022-12-13T01:03:49.099Z,48.69
2022-12-13T01:06:19.439Z,48.80
2022-12-13T01:08:47.293Z,48.53
2022-12-13T01:11:15.810Z,48.72
2022-12-13T01:13:43.855Z,48.84
2022-12-13T01:16:12.553Z,48.94
2022-12-13T01:18:41.071Z,48.67
2022-12-13T01:21:09.500Z,48.76
2022-12-13T01:23:38.997Z,48.66
2022-12-13T01:26:07.909Z,48.71
2022-12-13T01:28:35.530Z,48.73
2022-12-13T01:31:04.439Z,48.78
2022-12-13T01:33:33.745Z,48.67
2022-12-13T01:36:01.992Z,48.69
2022-12-13T01:38:30.547Z,48.90
2022-12-13T01:40:59.597Z,48.67
2022-12-13T01:43:29.564Z,48.72
2022-12-13T01:45:57.374Z,48.71
2022-12-13T01:48:28.641Z,48.89
2022-12-13T01:51:01.058Z,48.79
2022-12-13T01:53:30.093Z,48.55
2022-12-13T01:56:03.481Z,48.67
2022-12-13T01:58:31.534Z,48.75
2022-12-13T02:01:00.923Z,48.69
2022-12-13T02:03:28.831Z,48.56
2022-12-13T02:06:01.075Z,48.47
2022-12-13T02:08:29.740Z,48.59
2022-12-13T02:10:59.664Z,48.67
2022-12-13T02:13:27.398Z,48.43
2022-12-13T02:15:59.496Z,48.40
2022-12-13T02:18:36.654Z,48.79
2022-12-13T02:21:08.491Z,48.55
2022-12-13T02:23:48.955Z,48.70
2022-12-13T02:26:34.465Z,48.54
2022-12-13T02:29:12.105Z,48.38
2022-12-13T02:32:02.773Z,48.31
2022-12-13T02:34:36.165Z,48.62
2022-12-13T02:37:17.428Z,48.61
2022-12-13T02:39:50.565Z,48.65
2022-12-13T02:42:21.421Z,48.61
2022-12-13T02:44:52.466Z,48.50
2022-12-13T02:47:22.978Z,48.61
2022-12-13T02:49:52.505Z,48.74
2022-12-13T02:52:22.745Z,48.73
2022-12-13T02:54:50.541Z,48.78
2022-12-13T02:57:30.085Z,48.85
2022-12-13T02:59:58.844Z,48.40
2022-12-13T03:02:32.330Z,48.70
2022-12-13T03:05:22.282Z,48.88
2022-12-13T03:07:56.692Z,48.61
2022-12-13T03:10:29.998Z,48.61
2022-12-13T03:13:18.937Z,48.60
2022-12-13T03:15:54.344Z,48.56
2022-12-13T03:18:25.198Z,48.75
2022-12-13T03:20:55.734Z,48.47
2022-12-13T03:23:24.453Z,48.30
2022-12-13T03:25:56.729Z,48.23
2022-12-13T03:28:24.858Z,48.50
2022-12-13T03:30:52.590Z,48.25
2022-12-13T03:33:20.328Z,48.47
2022-12-13T03:35:49.733Z,48.51
2022-12-13T03:38:21.337Z,48.37
2022-12-13T03:40:51.957Z,48.14
2022-12-13T03:43:21.575Z,48.37
2022-12-13T03:45:50.244Z,48.52
2022-12-13T03:48:21.716Z,48.17
2022-12-13T03:50:52.936Z,48.43
2022-12-13T03:53:22.697Z,48.36
2022-12-13T03:56:01.309Z,48.31
2022-12-13T03:58:35.728Z,48.21
2022-12-13T04:01:04.953Z,48.31
2022-12-13T04:03:32.570Z,48.53
2022-12-13T04:06:01.744Z,48.53
2022-12-13T04:08:29.509Z,48.30
2022-12-13T04:10:57.634Z,48.29
2022-12-13T04:13:33.373Z,48.31
2022-12-13T04:16:01.211Z,48.23
2022-12-13T04:18:29.001Z,48.09
2022-12-13T04:20:57.444Z,47.80
2022-12-13T04:23:26.796Z,47.75
2022-12-13T04:25:54.752Z,47.96
2022-12-13T04:28:23.214Z,48.17
2022-12-13T04:30:52.948Z,47.92
2022-12-13T04:33:21.747Z,47.73
2022-12-13T04:35:49.434Z,47.81
2022-12-13T04:38:17.807Z,47.92
2022-12-13T04:40:46.855Z,47.80
2022-12-13T04:43:14.483Z,48.11
2022-12-13T04:45:42.228Z,48.06
2022-12-13T04:48:10.157Z,47.91
2022-12-13T04:50:38.079Z,47.99
2022-12-13T04:53:05.950Z,47.97
2022-12-13T04:55:33.700Z,47.84
2022-12-13T04:58:02.723Z,47.87
2022-12-13T05:00:30.452Z,47.85
2022-12-13T05:03:00.886Z,48.01
2022-12-13T05:05:28.542Z,47.83
2022-12-13T05:07:56.437Z,47.98
2022-12-13T05:10:33.943Z,47.81
2022-12-13T05:13:07.193Z,47.49
2022-12-13T05:15:35.348Z,47.85
2022-12-13T05:18:10.612Z,47.58
2022-12-13T05:20:39.250Z,47.74
2022-12-13T05:23:07.126Z,47.29
2022-12-13T05:25:37.064Z,47.34
2022-12-13T05:28:27.090Z,47.33
2022-12-13T05:30:56.123Z,47.31
2022-12-13T05:33:24.717Z,47.42
2022-12-13T05:35:57.702Z,47.28
2022-12-13T05:38:27.681Z,47.41
2022-12-13T05:40:55.414Z,47.36
2022-12-13T05:43:42.344Z,47.21
2022-12-13T05:46:11.341Z,47.60
2022-12-13T05:48:39.196Z,47.51
2022-12-13T05:51:10.126Z,47.51
2022-12-13T05:53:39.231Z,47.58
2022-12-13T05:56:07.423Z,47.55
2022-12-13T05:58:37.252Z,47.43
2022-12-13T06:01:09.002Z,47.46
2022-12-13T06:03:37.291Z,47.63
2022-12-13T06:06:05.593Z,47.91
2022-12-13T06:08:33.464Z,47.82
2022-12-13T06:11:09.835Z,47.64
2022-12-13T06:13:42.086Z,47.36
2022-12-13T06:16:22.738Z,47.48
2022-12-13T06:18:55.905Z,47.65
2022-12-13T06:21:39.148Z,47.55
2022-12-13T06:24:11.722Z,47.35
2022-12-13T06:26:39.479Z,47.47
2022-12-13T06:29:08.631Z,47.45
2022-12-13T06:31:37.093Z,47.69
2022-12-13T06:34:14.617Z,47.53
2022-12-13T06:36:43.276Z,47.42
2022-12-13T06:39:10.998Z,47.34
2022-12-13T06:41:38.829Z,47.27
2022-12-13T06:44:07.894Z,47.19
2022-12-13T06:46:35.911Z,47.28
2022-12-13T06:49:08.416Z,47.13
2022-12-13T06:51:36.142Z,47.26
2022-12-13T06:54:03.963Z,47.37
2022-12-13T06:56:31.913Z,47.34
2022-12-13T06:59:01.971Z,47.11
2022-12-13T07:01:37.790Z,47.09
2022-12-13T07:04:28.855Z,47.07
2022-12-13T07:07:01.578Z,47.06
2022-12-13T07:09:30.781Z,47.31
2022-12-13T07:11:58.539Z,47.28
2022-12-13T07:14:26.333Z,47.34
2022-12-13T07:17:02.863Z,47.29
2022-12-13T07:19:34.816Z,47.08
2022-12-13T07:22:06.011Z,47.15
2022-12-13T07:24:35.254Z,47.45
2022-12-13T07:27:03.116Z,47.20
2022-12-13T07:29:30.880Z,47.28
2022-12-13T07:32:01.189Z,47.29
2022-12-13T07:34:30.042Z,47.11
2022-12-13T07:36:57.716Z,47.09
2022-12-13T07:39:26.943Z,47.26
2022-12-13T07:41:55.387Z,46.75
2022-12-13T07:44:23.089Z,46.92
2022-12-13T07:46:50.982Z,46.99
2022-12-13T07:49:20.372Z,46.85
2022-12-13T07:51:49.089Z,47.05
2022-12-13T07:54:16.989Z,47.11
2022-12-13T07:56:45.890Z,46.91
2022-12-13T07:59:13.774Z,46.92
2022-12-13T08:01:41.591Z,46.75
2022-12-13T08:04:10.311Z,46.97
2022-12-13T08:06:39.765Z,46.53
2022-12-13T08:09:07.663Z,46.77
2022-12-13T08:11:35.806Z,46.71
2022-12-13T08:14:04.894Z,46.75
2022-12-13T08:16:32.875Z,46.69
2022-12-13T08:19:04.256Z,46.72
2022-12-13T08:21:54.090Z,46.62
2022-12-13T08:24:24.316Z,46.70
2022-12-13T08:26:52.088Z,46.48
2022-12-13T08:29:23.349Z,46.41
2022-12-13T08:32:03.355Z,46.63
2022-12-13T08:34:31.738Z,46.86
2022-12-13T08:37:01.457Z,46.64
2022-12-13T08:39:34.072Z,46.63
2022-12-13T08:42:15.753Z,46.88
2022-12-13T08:44:47.149Z,46.92
2022-12-13T08:47:24.481Z,47.17
2022-12-13T08:49:53.918Z,46.78
2022-12-13T08:52:22.055Z,47.00
2022-12-13T08:54:51.447Z,46.83
2022-12-13T08:57:19.132Z,47.28
2022-12-13T08:59:46.886Z,47.10
2022-12-13T09:02:14.907Z,46.96
2022-12-13T09:04:43.006Z,47.00
2022-12-13T09:07:10.827Z,47.10
2022-12-13T09:09:38.770Z,47.14
2022-12-13T09:12:10.985Z,47.31
2022-12-13T09:15:01.150Z,46.90
2022-12-13T09:17:36.755Z,46.12
2022-12-13T09:20:09.634Z,46.44
2022-12-13T09:22:45.098Z,46.53
2022-12-13T09:25:24.378Z,46.61
2022-12-13T09:27:54.924Z,46.28
2022-12-13T09:30:22.672Z,46.28
2022-12-13T09:32:50.674Z,46.58
2022-12-13T09:35:18.406Z,46.77
2022-12-13T09:37:48.939Z,46.47
2022-12-13T09:40:25.813Z,46.66
2022-12-13T09:43:21.665Z,46.62
2022-12-13T09:45:46.423Z,46.70
2022-12-13T09:48:22.853Z,46.61
2022-12-13T09:51:18.137Z,46.61
2022-12-13T09:53:41.078Z,47.16
2022-12-13T09:56:12.852Z,47.11
2022-12-13T09:58:41.976Z,46.89
2022-12-13T10:01:09.823Z,46.97
2022-12-13T10:03:37.664Z,47.11
2022-12-13T10:06:13.386Z,47.09
2022-12-13T10:08:43.001Z,47.14
2022-12-13T10:11:12.960Z,46.97
2022-12-13T10:13:44.457Z,46.94
2022-12-13T10:16:15.185Z,46.85
2022-12-13T10:18:51.564Z,46.84
2022-12-13T10:21:23.331Z,46.94
2022-12-13T10:26:40.512Z,46.90
2022-12-13T10:29:10.260Z,46.64
2022-12-13T10:31:43.467Z,47.09
2022-12-13T10:34:22.450Z,47.14
2022-12-13T10:36:50.308Z,47.22
2022-12-13T10:39:19.436Z,47.02
2022-12-13T10:41:47.667Z,47.05
2022-12-13T10:44:21.453Z,47.12
2022-12-13T10:46:54.780Z,47.55
2022-12-13T10:49:23.667Z,46.80
2022-12-13T10:51:52.041Z,46.74
2022-12-13T10:54:26.659Z,46.71
2022-12-13T10:57:00.053Z,46.91
2022-12-13T10:59:33.912Z,46.78
2022-12-13T11:02:03.779Z,46.98
2022-12-13T11:04:32.579Z,47.09
2022-12-13T11:07:04.012Z,47.10
2022-12-13T11:09:38.326Z,47.16
2022-12-13T11:12:14.397Z,46.84
2022-12-13T11:14:49.711Z,46.91
2022-12-13T11:17:18.274Z,47.33
2022-12-13T11:19:47.718Z,47.27
2022-12-13T11:22:21.435Z,47.20
2022-12-13T11:24:51.712Z,47.09
2022-12-13T11:27:41.007Z,46.72
2022-12-13T11:30:12.855Z,46.99
2022-12-13T11:32:49.441Z,47.00
2022-12-13T11:35:22.496Z,46.87
2022-12-13T11:37:55.745Z,46.50
2022-12-13T11:40:25.308Z,45.97
2022-12-13T11:42:55.000Z,46.29
2022-12-13T11:45:28.046Z,46.31
2022-12-13T11:48:02.791Z,45.91
2022-12-13T11:50:33.069Z,46.17
2022-12-13T11:53:15.772Z,46.14
2022-12-13T11:55:45.855Z,46.38
2022-12-13T11:58:16.608Z,46.62
2022-12-13T12:00:50.298Z,46.61
2022-12-13T12:03:19.888Z,46.02
2022-12-13T12:05:56.033Z,46.49
2022-12-13T12:08:31.139Z,46.55
2022-12-13T12:11:03.325Z,46.26
2022-12-13T12:13:33.558Z,46.27
2022-12-13T12:16:07.734Z,45.49
2022-12-13T12:18:35.596Z,46.00
2022-12-13T12:21:09.267Z,46.38
2022-12-13T12:23:52.319Z,46.27
2022-12-13T12:26:27.820Z,45.78
2022-12-13T12:29:11.952Z,45.69
2022-12-13T12:31:50.923Z,45.28
2022-12-13T12:34:27.225Z,45.97
2022-12-13T12:37:03.368Z,46.11
2022-12-13T12:39:37.770Z,46.11
2022-12-13T12:42:21.467Z,45.92
2022-12-13T12:44:58.980Z,46.15
2022-12-13T12:47:57.786Z,45.96
2022-12-13T12:50:26.890Z,46.15
2022-12-13T12:53:11.348Z,45.94
2022-12-13T12:55:49.347Z,45.71
2022-12-13T12:58:25.167Z,45.23
2022-12-13T13:01:01.568Z,45.23
2022-12-13T13:03:32.467Z,44.90
2022-12-13T13:06:03.060Z,45.35
2022-12-13T13:08:34.540Z,45.56
2022-12-13T13:11:02.434Z,45.33
2022-12-13T13:13:37.702Z,45.31
2022-12-13T13:16:30.033Z,45.28
2022-12-13T13:18:59.477Z,45.75
2022-12-13T13:21:42.807Z,45.62
2022-12-13T13:24:28.297Z,46.09
2022-12-13T13:26:56.854Z,45.89
2022-12-13T13:29:32.457Z,45.77
2022-12-13T13:32:03.090Z,45.80
2022-12-13T13:34:36.135Z,45.73
2022-12-13T13:37:05.061Z,45.84
2022-12-13T13:39:54.007Z,45.94
2022-12-13T13:42:22.616Z,46.00
2022-12-13T13:45:01.500Z,44.77
2022-12-13T13:47:40.068Z,45.36
2022-12-13T13:50:32.155Z,45.47
2022-12-13T13:53:10.642Z,45.59
2022-12-13T13:56:01.600Z,45.47
2022-12-13T13:58:44.523Z,45.73
2022-12-13T14:01:34.674Z,45.53
2022-12-13T14:04:21.401Z,45.60
2022-12-13T14:07:01.151Z,45.70
2022-12-13T14:09:44.380Z,45.75
2022-12-13T14:12:33.276Z,45.72
2022-12-13T14:15:24.788Z,45.90
2022-12-13T14:18:13.397Z,45.81
2022-12-13T14:21:12.873Z,45.89
2022-12-13T14:23:49.105Z,45.61
2022-12-13T14:26:23.735Z,45.35
2022-12-13T14:28:53.821Z,45.59
2022-12-13T14:31:23.008Z,45.71
2022-12-13T14:33:54.136Z,45.64
2022-12-13T14:36:27.614Z,45.68
2022-12-13T14:39:02.684Z,45.93
2022-12-13T14:41:31.018Z,45.69
2022-12-13T14:44:13.720Z,45.78
2022-12-13T14:46:49.115Z,45.87
2022-12-13T14:49:17.199Z,45.89
2022-12-13T14:51:45.544Z,45.76
2022-12-13T14:54:25.539Z,45.89
2022-12-13T14:56:57.772Z,45.87
2022-12-13T14:59:26.077Z,45.73
2022-12-13T15:01:58.925Z,45.66
2022-12-13T15:04:29.533Z,45.89
2022-12-13T15:07:00.425Z,45.86
2022-12-13T15:09:29.966Z,46.13
2022-12-13T15:12:15.070Z,46.03
2022-12-13T15:14:48.258Z,45.78
2022-12-13T15:17:28.846Z,45.60
2022-12-13T15:19:59.269Z,45.75
2022-12-13T15:22:34.976Z,45.69
2022-12-13T15:25:16.182Z,45.56
2022-12-13T15:27:52.434Z,45.90
2022-12-13T15:30:23.137Z,45.95
2022-12-13T15:33:07.833Z,45.86
2022-12-13T15:35:37.709Z,45.76
2022-12-13T15:38:05.512Z,45.74
2022-12-13T15:40:35.010Z,45.76
2022-12-13T15:43:03.106Z,45.79
2022-12-13T15:45:36.837Z,46.04
2022-12-13T15:48:05.800Z,45.83
2022-12-13T15:50:35.316Z,46.08
2022-12-13T15:53:04.061Z,45.81
2022-12-13T15:55:36.915Z,45.76
2022-12-13T15:58:05.045Z,45.83
2022-12-13T16:00:34.385Z,45.97
2022-12-13T16:03:09.449Z,45.98
2022-12-13T16:05:39.490Z,45.93
2022-12-13T16:08:13.582Z,45.89
2022-12-13T16:10:48.382Z,45.68
2022-12-13T16:13:26.516Z,45.76
2022-12-13T16:16:00.446Z,45.89
2022-12-13T16:18:52.335Z,45.74
2022-12-13T16:21:20.272Z,46.04
2022-12-13T16:23:49.260Z,45.74
2022-12-13T16:26:23.798Z,45.95
2022-12-13T16:28:51.614Z,45.92
2022-12-13T16:31:21.324Z,46.01
2022-12-13T16:33:49.184Z,45.70
2022-12-13T16:36:16.900Z,45.90
2022-12-13T16:38:44.685Z,45.95
2022-12-13T16:41:12.834Z,45.76
2022-12-13T16:43:49.076Z,45.59
2022-12-13T16:47:11.875Z,45.61
2022-12-13T16:49:14.820Z,45.49
2022-12-13T16:51:48.008Z,45.26
2022-12-13T16:54:16.544Z,45.38
2022-12-13T16:56:44.480Z,45.77
2022-12-13T16:59:15.365Z,45.53
2022-12-13T17:01:43.658Z,45.77
2022-12-13T17:04:17.839Z,45.43
2022-12-13T17:06:49.262Z,45.78
2022-12-13T17:09:17.359Z,45.40
2022-12-13T17:11:46.784Z,45.51
2022-12-13T17:14:16.624Z,45.55
2022-12-13T17:16:44.714Z,45.47
2022-12-13T17:19:14.668Z,45.21
2022-12-13T17:21:42.611Z,45.41
2022-12-13T17:24:10.319Z,45.50
2022-12-13T17:26:38.074Z,45.21
2022-12-13T17:29:05.821Z,45.37
2022-12-13T17:31:36.245Z,45.47
2022-12-13T17:34:04.373Z,45.41
2022-12-13T17:36:35.192Z,45.41
2022-12-13T17:39:03.203Z,45.50
2022-12-13T17:41:30.944Z,45.68
2022-12-13T17:43:59.449Z,45.42
2022-12-13T17:46:27.309Z,45.28
2022-12-13T17:48:56.649Z,45.40
2022-12-13T17:51:24.668Z,45.40
2022-12-13T17:53:52.781Z,45.46
2022-12-13T17:56:20.639Z,45.13
2022-12-13T17:58:48.797Z,45.22
2022-12-13T18:01:17.621Z,45.53
2022-12-13T18:03:45.934Z,45.19
2022-12-13T18:06:15.199Z,44.94
2022-12-13T18:08:44.445Z,45.27
2022-12-13T18:14:01.367Z,45.19
2022-12-13T18:16:37.103Z,45.08
2022-12-13T18:19:07.125Z,44.88
2022-12-13T18:21:37.172Z,45.14
2022-12-13T18:24:05.761Z,44.89
2022-12-13T18:26:33.753Z,45.01
2022-12-13T18:29:01.851Z,44.82
2022-12-13T18:31:29.680Z,45.11
2022-12-13T18:33:57.921Z,44.71
2022-12-13T18:36:26.479Z,44.86
2022-12-13T18:38:56.844Z,45.22
2022-12-13T18:41:28.043Z,44.73
2022-12-13T18:43:59.427Z,45.11
2022-12-13T18:46:28.630Z,44.92
2022-12-13T18:48:56.774Z,45.02
2022-12-13T18:51:24.901Z,44.95
2022-12-13T18:53:53.458Z,45.11
2022-12-13T18:56:24.068Z,44.74
2022-12-13T18:58:52.422Z,44.88
2022-12-13T19:01:20.493Z,44.64
2022-12-13T19:03:49.207Z,44.66
2022-12-13T19:06:18.299Z,44.83
2022-12-13T19:08:48.209Z,44.75
2022-12-13T19:11:16.403Z,44.64
2022-12-13T19:13:45.651Z,44.96
2022-12-13T19:16:14.502Z,44.83
2022-12-13T19:18:42.786Z,44.80
2022-12-13T19:21:13.323Z,44.70
2022-12-13T19:23:41.161Z,44.89
2022-12-13T19:26:09.510Z,44.95
2022-12-13T19:28:38.807Z,45.15
2022-12-13T19:31:08.521Z,44.90
2022-12-13T19:33:36.408Z,45.12
2022-12-13T19:36:04.637Z,44.89
2022-12-13T19:38:32.633Z,45.16
2022-12-13T19:41:00.374Z,44.95
2022-12-13T19:43:28.577Z,44.87
2022-12-13T19:45:56.560Z,44.74
2022-12-13T19:48:26.720Z,44.81
2022-12-13T19:50:59.164Z,44.72
2022-12-13T19:53:27.329Z,44.70
2022-12-13T19:55:55.574Z,44.99
2022-12-13T19:58:24.736Z,44.82
2022-12-13T20:00:52.788Z,44.98
2022-12-13T20:03:21.630Z,44.89
2022-12-13T20:05:59.014Z,45.02
2022-12-13T20:08:28.382Z,44.73
2022-12-13T20:10:58.562Z,44.82
2022-12-13T20:13:28.495Z,44.84
2022-12-13T20:15:56.916Z,44.97
2022-12-13T20:18:26.546Z,44.74
2022-12-13T20:21:12.666Z,45.00
2022-12-13T20:23:42.414Z,44.78
2022-12-13T20:26:18.074Z,44.51
2022-12-13T20:28:45.810Z,44.86
2022-12-13T20:31:14.489Z,44.72
2022-12-13T20:33:42.274Z,44.69
2022-12-13T20:36:28.298Z,44.80
2022-12-13T20:38:56.949Z,44.47
2022-12-13T20:41:26.096Z,44.47
2022-12-13T20:43:54.210Z,44.70
2022-12-13T20:46:22.591Z,44.54
2022-12-13T20:48:50.880Z,44.45
2022-12-13T20:51:20.874Z,44.49
2022-12-13T20:53:50.653Z,44.66
2022-12-13T20:56:19.425Z,44.43
2022-12-13T20:58:47.193Z,44.37
2022-12-13T21:01:15.900Z,44.27
2022-12-13T21:03:43.794Z,44.24
2022-12-13T21:06:11.645Z,44.46
2022-12-13T21:08:54.024Z,44.17
2022-12-13T21:12:10.371Z,44.20
2022-12-13T21:14:38.246Z,44.18
2022-12-13T21:17:09.645Z,43.99
2022-12-13T21:19:40.214Z,44.15
2022-12-13T21:22:08.654Z,44.05
2022-12-13T21:24:37.841Z,43.91
2022-12-13T21:27:06.329Z,43.66
2022-12-13T21:29:34.148Z,43.88
2022-12-13T21:32:02.345Z,43.75
2022-12-13T21:34:30.276Z,43.93
2022-12-13T21:36:58.362Z,43.96
2022-12-13T21:39:28.460Z,43.68
2022-12-13T21:41:57.948Z,43.51
2022-12-13T21:44:25.736Z,43.49
2022-12-13T21:49:41.362Z,43.71
2022-12-13T21:52:09.092Z,43.54
2022-12-13T21:54:36.842Z,44.02
2022-12-13T21:57:23.485Z,43.86
2022-12-13T21:59:51.214Z,43.87
2022-12-13T22:02:19.584Z,43.81
2022-12-13T22:04:48.754Z,43.87
2022-12-13T22:07:17.513Z,43.88
2022-12-13T22:09:45.615Z,43.67
2022-12-13T22:12:20.402Z,43.94
2022-12-13T22:14:48.261Z,44.05
2022-12-13T22:17:16.044Z,43.95
2022-12-13T22:19:43.855Z,43.79
2022-12-13T22:22:16.456Z,43.71
2022-12-13T22:24:48.430Z,43.85
2022-12-13T22:27:23.933Z,43.43
2022-12-13T22:29:52.120Z,43.70
2022-12-13T22:32:19.963Z,43.67
2022-12-13T22:34:47.756Z,43.17
2022-12-13T22:37:16.111Z,43.65
2022-12-13T22:39:44.216Z,43.18
2022-12-13T22:42:11.858Z,43.63
2022-12-13T22:44:40.970Z,43.60
2022-12-13T22:47:08.617Z,43.55
2022-12-13T22:49:38.073Z,43.89
2022-12-13T22:52:06.034Z,43.52
2022-12-13T22:54:33.817Z,43.80
2022-12-13T22:57:02.749Z,43.66
2022-12-13T22:59:30.702Z,43.64
2022-12-13T23:02:02.512Z,43.67
2022-12-13T23:04:33.317Z,43.97
2022-12-13T23:07:01.156Z,43.98
2022-12-13T23:09:28.953Z,43.77
2022-12-13T23:12:14.465Z,43.74
2022-12-13T23:14:42.252Z,43.59
2022-12-13T23:17:12.654Z,43.66
2022-12-13T23:19:50.407Z,43.84
2022-12-13T23:22:20.782Z,43.71
2022-12-13T23:24:48.495Z,43.74
2022-12-13T23:27:16.367Z,43.79
2022-12-13T23:29:45.065Z,43.83
2022-12-13T23:32:14.249Z,43.73
2022-12-13T23:34:42.147Z,43.61
2022-12-13T23:37:09.943Z,43.40
2022-12-13T23:39:37.784Z,43.33
2022-12-13T23:42:05.767Z,43.41
2022-12-13T23:44:33.490Z,43.33
2022-12-13T23:47:01.296Z,43.35
2022-12-13T23:49:30.351Z,43.24
2022-12-13T23:51:58.134Z,43.42
2022-12-13T23:54:27.291Z,43.56
2022-12-13T23:56:55.350Z,43.65
2022-12-13T23:59:25.832Z,43.51
